Time;durP1;ratioP1;P1;durP2;ratioP2;P2;SDS_P1;SDS_P2;PMS_P1;PMS_P2;Temp;Humidity;BMP_temperature;BMP_pressure;BME280_temperature;BME280_humidity;BME280_pressure;Samples;Min_cycle;Max_cycle;Signal;HPM_P1;HPM_P2
2023/06/09 00:03:39;;;;;;;11.30;8.50;;;;;;;13.41;67.85;99758.21;217744;1257;141435;-74
2023/06/09 00:08:42;;;;;;;12.40;9.10;;;;;;;13.32;67.90;99751.84;219120;1257;140864;-69
2023/06/09 00:13:46;;;;;;;14.20;10.20;;;;;;;13.24;68.26;99753.73;218680;1257;141730;-74
2023/06/09 00:18:51;;;;;;;14.60;10.60;;;;;;;13.20;68.55;99751.01;217902;1257;140961;-73
2023/06/09 00:23:55;;;;;;;23.60;9.40;;;;;;;13.18;68.76;99745.52;218519;1257;140479;-91
2023/06/09 00:28:58;;;;;;;12.50;9.70;;;;;;;13.16;68.78;99748.12;218308;1257;139632;-88
2023/06/09 00:34:02;;;;;;;8.30;7.30;;;;;;;13.10;68.53;99753.09;218637;1256;140046;-81
2023/06/09 00:39:05;;;;;;;11.10;9.20;;;;;;;12.95;68.61;99753.96;218059;1257;139988;-86
2023/06/09 00:44:09;;;;;;;10.40;8.60;;;;;;;12.76;69.01;99754.71;218062;1257;140338;-78
2023/06/09 00:49:13;;;;;;;11.30;8.90;;;;;;;12.67;69.18;99749.34;219224;1257;139406;-80
2023/06/09 00:54:18;;;;;;;13.90;9.70;;;;;;;12.65;69.61;99749.38;218492;1257;141335;-82
2023/06/09 00:59:21;;;;;;;10.70;9.60;;;;;;;12.66;69.61;99747.14;218777;1257;139894;-80
2023/06/09 01:04:25;;;;;;;8.60;7.90;;;;;;;12.63;69.64;99748.65;218323;1259;140423;-81
2023/06/09 01:09:57;;;;;;;8.90;7.90;;;;;;;12.49;69.76;99746.75;218760;1256;139659;-80
2023/06/09 01:15:23;;;;;;;13.30;8.60;;;;;;;12.41;69.85;99740.56;217943;1257;140072;-79
2023/06/09 01:20:45;;;;;;;13.30;9.90;;;;;;;12.33;70.13;99736.91;218413;1257;139981;-77
2023/06/09 01:25:52;;;;;;;9.10;8.20;;;;;;;12.30;70.36;99732.59;217894;1257;140193;-77
2023/06/09 01:30:57;;;;;;;10.80;8.60;;;;;;;12.30;70.53;99733.29;218146;1259;140431;-79
2023/06/09 01:36:00;;;;;;;9.20;8.30;;;;;;;12.30;70.47;99735.58;217895;1257;141002;-74
2023/06/09 01:41:03;;;;;;;11.00;9.50;;;;;;;12.22;70.34;99728.20;218377;1260;140170;-73
2023/06/09 01:46:06;;;;;;;12.50;9.30;;;;;;;12.16;70.56;99729.35;217836;1260;140801;-74
2023/06/09 01:51:17;;;;;;;11.20;10.00;;;;;;;12.10;70.65;99734.77;218086;1257;139805;-75
2023/06/09 01:56:47;;;;;;;11.50;10.20;;;;;;;12.02;71.04;99730.41;217947;1259;140544;-75
2023/06/09 02:01:51;;;;;;;11.40;9.60;;;;;;;12.02;71.35;99730.73;219473;1256;140631;-74
2023/06/09 02:06:56;;;;;;;12.60;10.30;;;;;;;12.00;71.48;99725.35;219412;1256;141822;-73
2023/06/09 02:11:59;;;;;;;10.40;9.50;;;;;;;12.05;71.57;99727.77;219077;1256;141552;-73
2023/06/09 02:17:03;;;;;;;9.30;8.40;;;;;;;12.07;71.55;99724.02;218916;1257;141184;-72
2023/06/09 02:22:07;;;;;;;9.80;8.80;;;;;;;12.00;71.23;99728.94;217647;1256;140618;-74
2023/06/09 02:27:09;;;;;;;11.00;9.40;;;;;;;11.82;71.36;99727.54;218479;1259;140834;-78
2023/06/09 02:32:13;;;;;;;8.70;7.90;;;;;;;11.78;71.78;99727.05;219390;1257;141709;-77
2023/06/09 02:37:16;;;;;;;10.70;9.80;;;;;;;11.76;71.84;99729.51;218715;1257;139524;-77
2023/06/09 02:42:20;;;;;;;10.60;9.60;;;;;;;11.84;72.38;99731.05;218327;1257;140671;-75
2023/06/09 02:47:23;;;;;;;10.50;9.20;;;;;;;11.86;72.09;99736.33;218156;1256;140590;-74
2023/06/09 02:52:31;;;;;;;10.10;9.20;;;;;;;11.79;72.07;99734.17;218583;1256;141173;-77
2023/06/09 02:57:35;;;;;;;11.60;10.40;;;;;;;11.79;72.29;99730.76;217729;1259;141814;-75
2023/06/09 03:02:41;;;;;;;13.90;8.50;;;;;;;11.82;72.65;99730.63;218127;1256;140117;-76
2023/06/09 03:07:44;;;;;;;11.80;8.50;;;;;;;11.78;72.64;99734.27;217925;1257;140694;-82
2023/06/09 03:12:47;;;;;;;11.00;9.90;;;;;;;11.83;72.93;99735.57;218387;1259;141113;-77
2023/06/09 03:17:50;;;;;;;10.60;9.50;;;;;;;11.95;73.26;99742.33;217889;1256;139674;-81
2023/06/09 03:22:54;;;;;;;12.40;11.30;;;;;;;12.07;73.38;99740.80;217915;1256;140593;-73
2023/06/09 03:27:56;;;;;;;9.40;8.50;;;;;;;12.17;73.45;99742.20;217844;1257;141468;-83
2023/06/09 03:32:59;;;;;;;11.20;10.20;;;;;;;12.20;73.57;99748.43;217646;1257;139978;-71
2023/06/09 03:38:04;;;;;;;12.10;10.60;;;;;;;12.30;73.83;99752.46;219048;1256;140327;-69
2023/06/09 03:43:07;;;;;;;9.70;8.50;;;;;;;12.62;74.05;99754.20;217795;1257;141075;-69
2023/06/09 03:48:11;;;;;;;10.80;9.10;;;;;;;12.88;74.00;99763.35;218465;1256;140300;-72
2023/06/09 03:53:16;;;;;;;14.30;13.10;;;;;;;13.11;74.20;99770.11;217677;1256;142025;-71
2023/06/09 03:58:19;;;;;;;11.50;10.20;;;;;;;13.50;74.43;99770.98;218503;1256;140094;-73
2023/06/09 04:03:23;;;;;;;11.10;9.90;;;;;;;13.78;74.15;99771.52;217824;1257;141535;-74
2023/06/09 04:08:29;;;;;;;13.30;11.00;;;;;;;13.94;74.47;99773.80;217900;1256;140711;-73
2023/06/09 04:13:33;;;;;;;12.20;10.90;;;;;;;14.19;74.81;99775.22;218498;1259;143284;-75
2023/06/09 04:18:36;;;;;;;13.80;10.00;;;;;;;14.63;74.91;99769.98;217871;1256;140141;-75
2023/06/09 04:23:40;;;;;;;10.30;9.30;;;;;;;15.76;74.15;99767.58;219908;1256;140451;-72
2023/06/09 04:28:43;;;;;;;9.80;8.90;;;;;;;16.24;73.91;99766.65;218883;1259;140472;-74
2023/06/09 04:33:46;;;;;;;10.10;9.30;;;;;;;17.13;72.90;99771.35;219812;1256;140558;-72
2023/06/09 04:38:51;;;;;;;10.10;9.20;;;;;;;18.57;71.25;99771.00;217851;1257;141151;-76
2023/06/09 04:44:03;;;;;;;9.90;8.90;;;;;;;20.51;68.87;99769.77;217950;1257;141621;-78
2023/06/09 04:49:11;;;;;;;8.30;7.60;;;;;;;21.45;66.76;99772.30;218611;1259;141347;-74
2023/06/09 04:54:17;;;;;;;9.00;7.90;;;;;;;22.40;65.00;99768.06;218252;1256;140264;-75
2023/06/09 04:59:22;;;;;;;14.40;7.90;;;;;;;22.92;63.49;99764.75;218407;1256;140099;-73
2023/06/09 05:04:26;;;;;;;9.20;8.40;;;;;;;23.76;61.39;99760.21;217929;1256;139724;-73
2023/06/09 05:09:31;;;;;;;7.50;6.90;;;;;;;25.37;59.09;99764.61;218521;1257;139126;-73
2023/06/09 05:14:35;;;;;;;8.10;6.80;;;;;;;28.84;54.61;99763.33;218058;1257;140305;-72
2023/06/09 05:19:38;;;;;;;7.40;6.80;;;;;;;31.85;50.02;99770.37;219070;1256;140201;-69
2023/06/09 05:24:41;;;;;;;6.90;5.80;;;;;;;34.32;45.99;99776.33;218142;1256;139096;-73
2023/06/09 05:29:43;;;;;;;6.80;4.40;;;;;;;36.28;41.93;99779.29;217861;1259;140479;-75
2023/06/09 05:34:46;;;;;;;4.20;3.80;;;;;;;37.95;38.57;99779.77;217866;1257;140125;-73
2023/06/09 05:39:50;;;;;;;4.20;3.90;;;;;;;39.22;35.86;99779.24;218307;1259;138922;-74
2023/06/09 05:44:54;;;;;;;4.80;3.50;;;;;;;40.54;33.31;99776.55;218150;1257;139496;-74
2023/06/09 05:49:57;;;;;;;3.20;3.00;;;;;;;41.68;31.48;99770.67;218236;1256;140265;-75
2023/06/09 05:55:01;;;;;;;4.70;3.20;;;;;;;42.57;29.61;99773.80;217789;1255;138772;-74
2023/06/09 06:00:09;;;;;;;5.50;3.80;;;;;;;43.37;28.29;99772.77;217865;1257;139227;-71
2023/06/09 06:05:14;;;;;;;4.80;3.50;;;;;;;43.92;26.71;99772.62;218436;1256;139716;-71
2023/06/09 06:10:17;;;;;;;4.70;3.30;;;;;;;44.34;25.40;99771.19;219298;1256;139341;-72
2023/06/09 06:15:21;;;;;;;5.40;2.40;;;;;;;44.63;24.57;99768.07;217799;1257;139012;-74
2023/06/09 06:20:27;;;;;;;3.80;2.60;;;;;;;44.85;23.80;99768.24;218022;1259;139741;-74
2023/06/09 06:25:41;;;;;;;4.20;2.70;;;;;;;44.98;23.18;99765.98;217479;1257;138668;-71
2023/06/09 06:30:45;;;;;;;5.10;3.60;;;;;;;44.89;22.61;99767.67;217946;1257;139452;-74
2023/06/09 06:36:06;;;;;;;4.40;2.70;;;;;;;44.84;22.14;99767.48;217788;1259;140257;-73
2023/06/09 06:41:09;;;;;;;3.00;2.80;;;;;;;44.89;22.45;99768.91;217537;1260;139063;-69
2023/06/09 06:46:21;;;;;;;4.00;2.50;;;;;;;45.00;21.85;99773.95;217323;1259;141000;-71
2023/06/09 06:51:24;;;;;;;7.30;2.50;;;;;;;44.80;21.39;99773.90;218787;1257;140821;-69
2023/06/09 06:56:27;;;;;;;1.90;1.80;;;;;;;44.61;21.23;99777.32;217501;1257;139241;-69
2023/06/09 07:01:46;;;;;;;;;;;;;;;;;;;;;
2023/06/09 07:06:53;;;;;;;2.80;2.30;;;;;;;44.38;21.08;99776.88;217618;1257;142100;-69
2023/06/09 07:11:57;;;;;;;6.50;3.10;;;;;;;44.19;20.75;99776.45;217623;1257;139422;-74
2023/06/09 07:16:59;;;;;;;2.60;2.40;;;;;;;43.91;20.52;99773.26;217512;1257;139755;-69
2023/06/09 07:22:11;;;;;;;2.60;2.10;;;;;;;43.52;20.85;99768.63;218190;1256;139577;-70
2023/06/09 07:27:14;;;;;;;2.40;2.20;;;;;;;42.59;21.23;99765.48;213502;1259;139181;-71
2023/06/09 07:32:17;;;;;;;6.80;2.90;;;;;;;41.54;21.78;99759.25;219118;1256;139492;-68
2023/06/09 07:37:20;;;;;;;4.10;3.80;;;;;;;40.45;22.11;99750.48;217471;1257;140022;-70
2023/06/09 07:42:27;;;;;;;32.20;5.00;;;;;;;39.52;22.92;99750.45;219471;1256;139449;-72
2023/06/09 07:47:32;;;;;;;5.60;2.70;;;;;;;38.63;23.54;99747.02;218210;1259;138552;-71
2023/06/09 07:52:37;;;;;;;2.70;2.50;;;;;;;37.87;24.14;99747.23;217490;1257;141006;-70
2023/06/09 07:57:41;;;;;;;5.40;4.20;;;;;;;37.14;25.00;99745.09;218205;1256;140356;-68
2023/06/09 08:02:43;;;;;;;3.80;3.20;;;;;;;36.53;25.84;99746.15;217384;1256;139739;-70
2023/06/09 08:07:50;;;;;;;10.00;3.90;;;;;;;36.12;26.09;99744.79;220355;1256;140475;-69
2023/06/09 08:12:54;;;;;;;12.40;4.70;;;;;;;35.52;26.54;99748.80;218097;1259;141849;-71
2023/06/09 08:17:56;;;;;;;4.10;3.80;;;;;;;35.05;27.00;99743.88;220485;1256;140652;-72
2023/06/09 08:22:58;;;;;;;3.90;3.60;;;;;;;34.38;27.69;99734.48;220330;1257;139749;-71
2023/06/09 08:28:01;;;;;;;3.60;3.30;;;;;;;34.26;28.56;99738.98;220112;1257;139192;-71
2023/06/09 08:33:09;;;;;;;13.10;3.70;;;;;;;34.25;28.44;99739.14;218086;1257;139241;-70
2023/06/09 08:38:12;;;;;;;3.60;3.30;;;;;;;34.03;28.93;99738.63;218317;1257;140528;-74
2023/06/09 08:43:16;;;;;;;6.10;4.60;;;;;;;33.30;29.05;99740.95;217789;1258;139298;-68
2023/06/09 08:48:30;;;;;;;4.30;4.00;;;;;;;32.90;29.81;99742.85;218461;1257;139231;-70
2023/06/09 08:53:35;;;;;;;6.60;4.30;;;;;;;32.79;30.06;99741.42;217778;1257;139067;-70
2023/06/09 08:58:41;;;;;;;5.80;5.40;;;;;;;32.70;30.34;99732.20;217911;1257;139046;-69
2023/06/09 09:03:50;;;;;;;4.50;4.10;;;;;;;32.61;30.34;99737.81;217623;1257;139305;-71
2023/06/09 09:08:54;;;;;;;4.70;4.30;;;;;;;32.71;30.59;99734.56;218397;1257;138954;-70
2023/06/09 09:14:12;;;;;;;5.70;4.10;;;;;;;32.72;30.83;99734.59;218810;1259;140485;-70
2023/06/09 09:19:28;;;;;;;5.20;4.30;;;;;;;32.87;30.50;99730.14;218152;1257;140583;-70
2023/06/09 09:24:35;;;;;;;6.90;4.60;;;;;;;32.43;30.79;99728.60;218344;1257;140572;-71
2023/06/09 09:29:42;;;;;;;5.30;4.50;;;;;;;32.02;31.27;99726.55;218574;1256;138935;-71
2023/06/09 09:34:47;;;;;;;5.50;4.00;;;;;;;32.08;31.71;99718.80;218726;1259;139399;-72
2023/06/09 09:39:55;;;;;;;4.20;3.80;;;;;;;31.96;31.41;99717.27;218353;1257;139775;-70
2023/06/09 09:45:04;;;;;;;4.60;3.60;;;;;;;31.91;31.20;99715.40;218558;1256;139921;-70
2023/06/09 09:50:23;;;;;;;5.50;4.10;;;;;;;31.99;31.63;99709.10;218732;1256;139093;-71
2023/06/09 09:55:29;;;;;;;4.30;4.00;;;;;;;31.85;31.39;99703.69;218725;1257;139019;-71
2023/06/09 10:00:37;;;;;;;4.40;3.90;;;;;;;31.90;31.57;99699.71;218196;1257;139211;-70
2023/06/09 10:05:49;;;;;;;4.40;4.00;;;;;;;31.74;31.68;99695.61;219025;1257;139752;-71
2023/06/09 10:10:54;;;;;;;4.90;4.30;;;;;;;31.52;32.11;99690.55;218098;1257;139425;-71
2023/06/09 10:15:58;;;;;;;4.20;3.90;;;;;;;31.50;32.11;99687.36;219340;1257;138822;-71
2023/06/09 10:21:03;;;;;;;40.70;7.40;;;;;;;31.76;32.01;99684.38;218431;1259;140421;-71
2023/06/09 10:26:10;;;;;;;4.10;3.70;;;;;;;31.60;31.76;99681.02;217855;1256;139092;-71
2023/06/09 10:31:17;;;;;;;7.80;4.10;;;;;;;31.77;32.10;99665.80;218919;1256;139361;-71
2023/06/09 10:36:24;;;;;;;4.40;3.40;;;;;;;31.81;31.77;99663.32;217967;1255;139601;-69
2023/06/09 10:41:38;;;;;;;6.60;4.30;;;;;;;32.02;31.96;99664.95;218122;1256;139481;-71
2023/06/09 10:46:44;;;;;;;4.10;3.50;;;;;;;32.17;31.71;99659.87;218223;1256;139608;-71
2023/06/09 10:51:49;;;;;;;5.50;4.30;;;;;;;32.21;31.88;99654.23;217843;1257;139764;-70
2023/06/09 10:57:00;;;;;;;3.60;3.40;;;;;;;32.34;31.51;99655.23;218123;1257;139018;-70
2023/06/09 11:02:05;;;;;;;5.40;3.80;;;;;;;32.02;31.15;99644.53;218896;1256;140239;-71
2023/06/09 11:07:15;;;;;;;5.70;3.90;;;;;;;31.51;31.59;99648.73;218049;1257;138542;-71
2023/06/09 11:12:30;;;;;;;3.80;3.50;;;;;;;31.12;32.12;99640.71;217554;1261;139146;-72
2023/06/09 11:17:36;;;;;;;5.00;4.00;;;;;;;30.86;32.36;99632.04;218001;1259;140250;-72
2023/06/09 11:22:41;;;;;;;;;;;;;;;30.99;32.70;99626.29;217517;1257;140114;-74
2023/06/09 11:27:54;;;;;;;4.00;3.70;;;;;;;30.74;33.00;99622.20;217784;1257;126008;-73
2023/06/09 11:32:59;;;;;;;3.60;3.40;;;;;;;30.42;33.41;99628.80;217642;1259;139913;-80
2023/06/09 11:38:03;;;;;;;244.70;34.30;;;;;;;30.22;33.60;99623.85;218851;1257;139772;-72
2023/06/09 11:43:22;;;;;;;6.30;4.50;;;;;;;30.34;33.74;99617.50;217860;1256;139454;-69
2023/06/09 11:48:25;;;;;;;11.20;4.90;;;;;;;30.34;33.91;99611.30;218297;1259;139012;-70
2023/06/09 11:53:30;;;;;;;4.70;4.30;;;;;;;30.11;33.84;99615.11;218388;1256;140358;-72
2023/06/09 11:58:35;;;;;;;12.30;4.60;;;;;;;29.88;34.35;99612.66;219206;1259;139361;-71
2023/06/09 12:03:41;;;;;;;3.70;3.50;;;;;;;29.91;34.68;99608.86;218390;1256;140843;-71
2023/06/09 12:08:46;;;;;;;4.00;3.80;;;;;;;29.89;34.36;99603.88;218920;1256;141368;-72
2023/06/09 12:13:50;;;;;;;5.80;3.60;;;;;;;29.85;34.20;99601.61;220454;1257;139518;-74
2023/06/09 12:18:54;;;;;;;5.90;3.30;;;;;;;29.91;34.30;99595.04;219856;1257;140337;-71
2023/06/09 12:23:56;;;;;;;11.30;4.40;;;;;;;29.96;34.49;99590.80;218800;1260;138938;-72
2023/06/09 12:29:01;;;;;;;5.60;3.80;;;;;;;29.96;34.15;99594.02;218599;1257;139971;-73
2023/06/09 12:34:04;;;;;;;73.80;12.20;;;;;;;29.95;33.70;99585.76;218189;1259;139862;-71
2023/06/09 12:39:30;;;;;;;4.60;3.40;;;;;;;29.93;33.85;99588.02;218963;1257;140000;-72
2023/06/09 12:44:35;;;;;;;3.90;3.60;;;;;;;29.97;33.83;99583.82;217429;1257;139184;-69
2023/06/09 12:49:38;;;;;;;10.60;4.40;;;;;;;30.10;34.05;99577.86;218538;1257;140671;-71
2023/06/09 12:54:41;;;;;;;117.20;11.40;;;;;;;30.25;33.79;99573.92;217942;1259;139431;-70
2023/06/09 12:59:45;;;;;;;13.00;4.50;;;;;;;30.06;33.63;99573.86;218508;1256;140270;-70
2023/06/09 13:04:48;;;;;;;11.20;4.10;;;;;;;29.70;33.45;99585.89;217779;1257;139673;-71
2023/06/09 13:09:51;;;;;;;4.70;4.00;;;;;;;29.33;34.26;99589.74;217654;1259;139657;-70
2023/06/09 13:14:54;;;;;;;7.80;3.70;;;;;;;29.12;34.35;99576.64;217468;1257;139273;-71
2023/06/09 13:20:02;;;;;;;5.40;3.90;;;;;;;28.89;34.77;99569.05;218398;1257;138957;-72
2023/06/09 13:25:06;;;;;;;7.30;4.60;;;;;;;28.54;35.40;99571.09;218170;1259;139741;-72
2023/06/09 13:30:12;;;;;;;7.80;4.40;;;;;;;28.45;35.92;99566.58;217797;1256;139566;-72
2023/06/09 13:35:17;;;;;;;6.30;4.70;;;;;;;28.56;36.31;99563.06;218365;1257;139414;-71
2023/06/09 13:40:21;;;;;;;4.00;3.70;;;;;;;28.65;35.94;99550.41;218098;1257;138994;-72
2023/06/09 13:45:26;;;;;;;4.40;4.10;;;;;;;28.72;36.51;99549.77;217998;1257;139139;-72
2023/06/09 13:50:31;;;;;;;10.20;4.50;;;;;;;28.57;35.84;99564.04;219531;1257;139931;-72
2023/06/09 13:55:35;;;;;;;15.00;5.00;;;;;;;27.94;36.69;99571.66;218132;1259;139367;-72
2023/06/09 14:00:39;;;;;;;7.10;4.30;;;;;;;27.10;38.94;99579.86;218704;1259;139080;-71
2023/06/09 14:05:44;;;;;;;7.80;4.80;;;;;;;25.97;41.37;99582.50;218035;1259;140553;-69
2023/06/09 14:10:48;;;;;;;4.70;4.30;;;;;;;25.41;43.70;99582.95;218522;1260;139112;-73
2023/06/09 14:15:52;;;;;;;5.20;4.70;;;;;;;25.27;45.77;99580.91;218225;1257;140358;-68
2023/06/09 14:20:56;;;;;;;5.00;4.60;;;;;;;25.04;47.64;99574.63;218939;1260;139793;-68
2023/06/09 14:25:59;;;;;;;6.40;4.70;;;;;;;24.70;49.13;99570.08;218673;1258;140308;-69
2023/06/09 14:31:02;;;;;;;5.30;4.90;;;;;;;24.46;50.39;99570.34;218282;1257;139331;-71
2023/06/09 14:36:06;;;;;;;8.40;4.90;;;;;;;24.12;51.06;99591.86;217974;1257;139267;-72
2023/06/09 14:41:10;;;;;;;4.70;4.40;;;;;;;24.07;51.24;99621.42;218717;1260;140278;-68
2023/06/09 14:46:18;;;;;;;6.00;3.90;;;;;;;23.64;49.47;99653.76;217822;1260;139130;-69
2023/06/09 14:51:21;;;;;;;3.80;2.90;;;;;;;22.72;49.04;99630.12;218282;1260;139584;-70
2023/06/09 14:56:25;;;;;;;3.60;3.30;;;;;;;22.11;49.70;99618.20;217876;1262;140013;-74
2023/06/09 15:01:30;;;;;;;4.50;3.50;;;;;;;21.82;50.23;99609.42;218147;1258;139051;-68
2023/06/09 15:06:35;;;;;;;3.90;3.40;;;;;;;21.52;50.78;99603.30;218619;1256;138679;-72
2023/06/09 15:11:39;;;;;;;4.80;3.30;;;;;;;21.33;51.54;99602.93;218052;1257;140859;-71
2023/06/09 15:16:43;;;;;;;4.30;3.00;;;;;;;21.39;52.24;99594.64;218744;1257;139364;-76
2023/06/09 15:21:51;;;;;;;5.20;3.70;;;;;;;21.55;52.74;99588.48;217775;1258;140424;-75
2023/06/09 15:27:08;;;;;;;5.00;3.60;;;;;;;21.57;53.16;99593.41;218617;1260;139008;-74
2023/06/09 15:32:15;;;;;;;4.70;4.30;;;;;;;21.65;53.99;99590.61;218825;1258;140898;-77
2023/06/09 15:37:19;;;;;;;4.70;4.30;;;;;;;21.85;54.63;99587.83;217913;1260;139259;-70
2023/06/09 15:42:23;;;;;;;6.40;5.30;;;;;;;21.91;54.68;99592.96;218095;1257;138523;-71
2023/06/09 15:47:28;;;;;;;6.30;4.80;;;;;;;21.80;54.98;99594.26;220073;1260;139033;-81
2023/06/09 15:52:32;;;;;;;5.70;5.10;;;;;;;21.78;55.99;99591.59;217942;1260;139518;-72
2023/06/09 15:57:36;;;;;;;7.00;5.70;;;;;;;21.95;56.61;99597.14;217901;1260;138944;-72
2023/06/09 16:02:40;;;;;;;5.60;5.10;;;;;;;22.14;57.46;99606.56;218879;1258;139321;-74
2023/06/09 16:07:54;;;;;;;6.80;5.60;;;;;;;22.33;57.26;99603.04;218130;1257;139196;-76
2023/06/09 16:13:00;;;;;;;;;;;;;;;22.50;56.59;99606.41;218074;1257;139155;-76
2023/06/09 16:18:05;;;;;;;6.60;6.20;;;;;;;22.63;56.54;99610.10;218213;1260;129557;-72
2023/06/09 16:23:10;;;;;;;7.70;6.20;;;;;;;22.76;56.30;99611.55;218073;1260;139879;-73
2023/06/09 16:28:14;;;;;;;8.10;7.30;;;;;;;22.81;56.49;99617.38;217977;1260;229351;-73
2023/06/09 16:33:22;;;;;;;7.10;6.50;;;;;;;22.87;56.45;99621.03;218403;1260;139634;-72
2023/06/09 16:38:32;;;;;;;11.50;8.20;;;;;;;22.91;56.66;99615.92;218484;1257;140251;-73
2023/06/09 16:43:34;;;;;;;13.40;11.40;;;;;;;22.92;56.43;99624.52;218105;1259;139618;-73
2023/06/09 16:48:37;;;;;;;13.70;12.40;;;;;;;22.94;56.11;99620.00;217987;1260;140792;-77
2023/06/09 16:53:44;;;;;;;12.20;11.10;;;;;;;23.03;56.03;99619.88;217923;1258;139601;-81
2023/06/09 16:58:48;;;;;;;11.70;10.60;;;;;;;23.08;55.76;99623.88;218547;1257;139388;-78
2023/06/09 17:03:51;;;;;;;13.10;11.20;;;;;;;23.04;55.33;99619.23;217823;1260;140363;-83
2023/06/09 17:08:56;;;;;;;11.10;9.60;;;;;;;22.99;55.26;99616.36;218178;1257;139650;-73
2023/06/09 17:14:00;;;;;;;11.30;8.60;;;;;;;23.02;55.18;99618.09;218397;1260;139434;-71
2023/06/09 17:19:08;;;;;;;7.90;7.00;;;;;;;23.06;55.23;99617.41;218932;1257;139663;-72
2023/06/09 17:24:11;;;;;;;14.50;7.60;;;;;;;23.08;54.90;99612.27;217937;1260;139731;-71
2023/06/09 17:29:16;;;;;;;7.10;6.50;;;;;;;23.13;54.68;99616.46;217814;1260;140276;-71
2023/06/09 17:34:20;;;;;;;7.50;6.70;;;;;;;23.14;54.63;99621.42;218255;1257;139068;-69
2023/06/09 17:39:24;;;;;;;6.20;5.70;;;;;;;23.12;54.41;99625.29;218922;1257;139943;-70
2023/06/09 17:44:29;;;;;;;7.40;6.70;;;;;;;23.06;54.39;99625.64;218316;1260;140227;-73
2023/06/09 17:49:33;;;;;;;8.90;7.40;;;;;;;23.01;54.65;99630.20;218457;1260;139104;-76
2023/06/09 17:54:36;;;;;;;7.20;6.50;;;;;;;22.91;55.20;99625.41;218533;1257;139667;-72
2023/06/09 17:59:43;;;;;;;10.50;6.70;;;;;;;22.78;55.64;99621.16;217826;1260;140335;-87
2023/06/09 18:04:47;;;;;;;8.80;6.80;;;;;;;22.66;56.01;99624.13;218543;1260;139564;-87
2023/06/09 18:09:50;;;;;;;10.00;6.90;;;;;;;22.51;56.45;99625.55;218128;1257;219760;-88
2023/06/09 18:14:54;;;;;;;9.20;7.20;;;;;;;22.35;56.71;99630.46;218543;1256;139381;-83
2023/06/09 18:19:58;;;;;;;14.90;7.40;;;;;;;22.19;56.93;99626.42;218204;1258;139823;-80
2023/06/09 18:25:03;;;;;;;9.20;6.90;;;;;;;22.04;57.12;99632.61;218277;1257;139387;-70
2023/06/09 18:30:14;;;;;;;9.70;7.20;;;;;;;21.89;57.43;99639.48;218152;1257;139412;-70
2023/06/09 18:35:18;;;;;;;7.80;7.10;;;;;;;21.71;57.77;99638.20;218567;1256;139440;-83
2023/06/09 18:40:24;;;;;;;7.40;6.70;;;;;;;21.54;57.88;99645.75;217935;1257;139066;-84
2023/06/09 18:45:27;;;;;;;8.00;7.10;;;;;;;21.38;58.16;99654.77;217966;1256;140505;-80
2023/06/09 18:50:33;;;;;;;8.50;7.50;;;;;;;21.21;58.58;99657.14;217895;1257;139530;-83
2023/06/09 18:55:35;;;;;;;10.40;7.30;;;;;;;21.06;59.03;99665.00;217980;1258;139764;-71
2023/06/09 19:00:38;;;;;;;11.40;8.00;;;;;;;20.91;59.29;99667.34;217831;1260;139746;-74
2023/06/09 19:05:41;;;;;;;8.30;7.50;;;;;;;20.78;59.60;99669.80;218521;1257;139545;-72
2023/06/09 19:10:44;;;;;;;8.10;7.00;;;;;;;20.64;60.02;99670.85;218178;1257;140066;-71
2023/06/09 19:15:46;;;;;;;10.40;7.80;;;;;;;20.50;60.68;99679.42;217961;1256;139080;-67
2023/06/09 19:20:49;;;;;;;8.00;7.10;;;;;;;20.36;61.08;99681.32;218529;1257;140466;-67
2023/06/09 19:25:54;;;;;;;9.90;6.90;;;;;;;20.17;61.69;99684.95;218148;1257;721674;-71
2023/06/09 19:30:56;;;;;;;8.70;8.00;;;;;;;19.99;62.28;99684.27;218304;1256;141043;-70
2023/06/09 19:36:00;;;;;;;8.20;7.40;;;;;;;19.90;62.85;99683.88;219034;1256;141089;-71
2023/06/09 19:41:02;;;;;;;11.20;7.50;;;;;;;19.82;63.27;99688.25;218194;1260;140033;-73
2023/06/09 19:46:10;;;;;;;8.20;7.40;;;;;;;19.79;63.80;99691.00;218023;1256;139795;-70
2023/06/09 19:51:13;;;;;;;8.20;7.10;;;;;;;19.72;64.10;99694.90;217511;1256;140593;-68
2023/06/09 19:56:15;;;;;;;8.50;7.50;;;;;;;19.66;64.55;99692.35;218597;1257;139680;-70
2023/06/09 20:01:18;;;;;;;11.90;8.40;;;;;;;19.62;64.90;99689.59;218599;1257;140149;-69
2023/06/09 20:06:21;;;;;;;9.30;8.50;;;;;;;19.60;65.31;99696.97;218636;1257;140266;-76
2023/06/09 20:11:25;;;;;;;8.70;7.90;;;;;;;19.58;65.45;99696.59;218504;1257;140249;-71
2023/06/09 20:16:30;;;;;;;8.90;8.00;;;;;;;19.52;65.61;99699.23;218079;1257;140473;-73
2023/06/09 20:21:36;;;;;;;19.00;9.70;;;;;;;19.45;65.79;99700.55;218037;1256;142008;-66
2023/06/09 20:26:39;;;;;;;11.20;10.00;;;;;;;19.43;66.18;99701.30;219102;1257;140463;-69
2023/06/09 20:31:42;;;;;;;10.60;9.50;;;;;;;19.38;66.04;99695.52;218213;1256;140513;-69
2023/06/09 20:36:46;;;;;;;11.20;9.00;;;;;;;19.28;66.51;99698.69;218182;1257;140123;-76
2023/06/09 20:41:50;;;;;;;10.70;9.60;;;;;;;19.20;66.66;99702.01;218018;1259;140229;-72
2023/06/09 20:46:53;;;;;;;15.60;9.80;;;;;;;19.10;67.01;99697.06;218063;1257;140075;-76
2023/06/09 20:51:55;;;;;;;13.80;9.90;;;;;;;19.09;67.32;99691.66;217788;1257;140684;-71
2023/06/09 20:56:58;;;;;;;11.00;9.80;;;;;;;19.08;67.64;99694.39;218293;1257;140383;-67
2023/06/09 21:02:04;;;;;;;12.20;10.80;;;;;;;19.08;67.91;99696.23;217832;1257;141064;-72
2023/06/09 21:07:09;;;;;;;14.40;10.90;;;;;;;19.01;67.86;99703.89;217863;1257;140545;-71
2023/06/09 21:12:12;;;;;;;13.20;11.20;;;;;;;18.89;68.10;99704.81;218702;1256;140303;-71
2023/06/09 21:17:15;;;;;;;12.10;10.90;;;;;;;18.86;68.55;99704.64;217934;1257;141515;-72
2023/06/09 21:22:19;;;;;;;12.20;11.10;;;;;;;18.86;68.95;99705.56;217938;1257;140626;-67
2023/06/09 21:27:22;;;;;;;13.30;9.40;;;;;;;18.83;69.23;99710.17;218168;1257;140418;-67
2023/06/09 21:32:26;;;;;;;12.40;11.00;;;;;;;18.73;69.39;99711.54;218224;1256;139989;-68
2023/06/09 21:37:30;;;;;;;14.10;11.90;;;;;;;18.74;69.70;99708.73;219033;1256;139958;-69
2023/06/09 21:42:33;;;;;;;15.30;11.10;;;;;;;18.77;69.65;99711.88;218627;1257;141159;-74
2023/06/09 21:47:36;;;;;;;18.00;10.50;;;;;;;18.76;69.50;99717.66;218226;1257;225245;-73
2023/06/09 21:52:40;;;;;;;17.60;11.50;;;;;;;18.71;69.58;99716.58;220287;1256;140808;-72
2023/06/09 21:57:43;;;;;;;13.70;11.20;;;;;;;18.69;69.74;99713.04;218710;1257;140859;-77
2023/06/09 22:02:46;;;;;;;12.50;11.20;;;;;;;18.70;69.56;99711.47;220403;1256;142710;-68
2023/06/09 22:07:49;;;;;;;12.50;11.00;;;;;;;18.71;69.58;99713.66;218369;1257;140482;-74
2023/06/09 22:12:52;;;;;;;15.00;9.80;;;;;;;18.73;69.25;99709.15;217994;1256;140577;-70
2023/06/09 22:17:54;;;;;;;11.40;10.00;;;;;;;18.73;69.37;99709.54;218456;1256;140348;-70
2023/06/09 22:22:57;;;;;;;10.60;9.60;;;;;;;18.73;69.14;99716.34;217699;1257;140281;-70
2023/06/09 22:28:00;;;;;;;12.60;9.60;;;;;;;18.72;69.13;99721.91;218425;1257;140862;-72
2023/06/09 22:33:03;;;;;;;16.60;9.50;;;;;;;18.71;69.29;99719.60;218327;1256;140610;-69
2023/06/09 22:38:07;;;;;;;10.50;8.80;;;;;;;18.72;69.45;99717.54;217708;1256;139936;-67
2023/06/09 22:43:10;;;;;;;12.50;10.00;;;;;;;18.71;69.29;99711.63;217729;1259;234083;-72
2023/06/09 22:48:14;;;;;;;9.90;8.90;;;;;;;18.68;69.39;99711.48;217828;1259;140924;-70
2023/06/09 22:53:18;;;;;;;12.50;10.30;;;;;;;18.63;69.59;99709.89;217902;1256;139448;-72
2023/06/09 22:58:22;;;;;;;10.40;8.50;;;;;;;18.61;69.92;99702.20;217832;1257;140980;-70
2023/06/09 23:03:25;;;;;;;12.50;9.90;;;;;;;18.59;70.04;99699.12;218973;1256;140315;-69
2023/06/09 23:08:28;;;;;;;10.60;9.60;;;;;;;18.57;69.91;99699.99;217948;1257;140670;-74
2023/06/09 23:13:31;;;;;;;19.50;10.00;;;;;;;18.53;70.00;99701.02;218195;1257;139935;-77
2023/06/09 23:18:35;;;;;;;11.50;9.80;;;;;;;18.40;70.15;99705.73;217864;1257;140193;-70